Time;durP1;ratioP1;P1;durP2;ratioP2;P2;SDS_P1;SDS_P2;PMS_P1;PMS_P2;Temp;Humidity;BMP_temperature;BMP_pressure;BME280_temperature;BME280_humidity;BME280_pressure;Samples;Min_cycle;Max_cycle;Signal;HPM_P1;HPM_P2
2023/10/23 00:00:49;;;;;;;1999.90;999.90;;;6.80;99.90;;;;;;5096809;28;20032;-73
2023/10/23 00:03:15;;;;;;;1999.90;999.90;;;6.80;99.90;;;;;;5095583;28;20032;-73
2023/10/23 00:05:40;;;;;;;1999.90;999.90;;;6.70;99.90;;;;;;5097023;28;20028;-73
2023/10/23 00:08:06;;;;;;;1999.90;999.90;;;6.70;99.90;;;;;;5096984;28;20393;-73
2023/10/23 00:10:32;;;;;;;1999.90;999.90;;;6.70;99.90;;;;;;5096897;28;20029;-73
2023/10/23 00:12:57;;;;;;;1999.90;999.90;;;6.70;99.90;;;;;;5096992;28;20481;-73
2023/10/23 00:15:23;;;;;;;1999.90;999.90;;;6.70;99.90;;;;;;5095394;28;20434;-73
2023/10/23 00:17:48;;;;;;;1999.90;999.90;;;6.70;99.90;;;;;;5095136;28;20033;-74
2023/10/23 00:20:15;;;;;;;1999.90;999.90;;;6.70;99.90;;;;;;5096889;28;20112;-73
2023/10/23 00:22:40;;;;;;;1999.90;999.90;;;6.70;99.90;;;;;;5096538;28;20490;-73
2023/10/23 00:25:06;;;;;;;1999.90;999.90;;;6.70;99.90;;;;;;5096758;28;20036;-73
2023/10/23 00:27:32;;;;;;;1999.90;999.90;;;6.70;99.90;;;;;;5094632;28;20522;-73
2023/10/23 00:29:57;;;;;;;1999.90;999.90;;;6.70;99.90;;;;;;5096726;28;20028;-74
2023/10/23 00:32:23;;;;;;;1999.90;999.90;;;6.70;99.90;;;;;;5095535;28;20040;-73
2023/10/23 00:34:48;;;;;;;1999.90;999.90;;;6.60;99.90;;;;;;5096701;28;20042;-73
2023/10/23 00:37:14;;;;;;;1999.90;999.90;;;6.60;99.90;;;;;;5096405;28;20437;-74
2023/10/23 00:39:40;;;;;;;1999.90;999.90;;;6.60;99.90;;;;;;5096578;28;20032;-73
2023/10/23 00:42:05;;;;;;;1999.90;999.90;;;6.60;99.90;;;;;;5096210;28;20098;-73
2023/10/23 00:44:31;;;;;;;1999.90;999.90;;;6.60;99.90;;;;;;5096503;28;20028;-73
2023/10/23 00:46:56;;;;;;;1999.90;999.90;;;6.60;99.90;;;;;;5096102;28;20040;-74
2023/10/23 00:49:23;;;;;;;1999.90;999.90;;;6.60;99.90;;;;;;5094884;28;20036;-73
2023/10/23 00:51:49;;;;;;;1999.90;999.90;;;6.60;99.90;;;;;;5096193;28;20761;-73
2023/10/23 00:54:15;;;;;;;1999.90;999.90;;;6.60;99.90;;;;;;5096386;28;20036;-73
2023/10/23 00:56:41;;;;;;;1999.90;999.90;;;6.60;99.90;;;;;;5096095;28;20029;-73
2023/10/23 00:59:09;;;;;;;1999.90;999.90;;;6.50;99.90;;;;;;5096010;28;20060;-73
2023/10/23 01:01:35;;;;;;;1999.90;999.90;;;6.50;99.90;;;;;;5095753;28;20028;-73
2023/10/23 01:04:03;;;;;;;1999.90;999.90;;;6.40;99.90;;;;;;5096253;28;20033;-73
2023/10/23 01:06:30;;;;;;;1999.90;999.90;;;6.30;99.90;;;;;;5094415;28;20029;-73
2023/10/23 01:08:56;;;;;;;1999.90;999.90;;;6.20;99.90;;;;;;5094581;28;20041;-73
2023/10/23 01:11:21;;;;;;;1999.90;999.90;;;6.20;99.90;;;;;;5096047;28;20486;-73
2023/10/23 01:13:47;;;;;;;1999.90;999.90;;;6.20;99.90;;;;;;5096108;28;20052;-73
2023/10/23 01:16:12;;;;;;;1999.90;999.90;;;6.10;99.90;;;;;;5095778;28;20467;-73
2023/10/23 01:18:38;;;;;;;1999.90;999.90;;;6.00;99.90;;;;;;5094408;28;20446;-73
2023/10/23 01:21:04;;;;;;;1999.90;999.90;;;6.10;99.90;;;;;;5094118;28;20474;-73
2023/10/23 01:23:34;;;;;;;1999.90;999.90;;;6.10;99.90;;;;;;5095927;28;20028;-73
2023/10/23 01:26:00;;;;;;;1999.90;999.90;;;6.00;99.90;;;;;;5095675;28;20031;-73
2023/10/23 01:28:25;;;;;;;1999.90;999.90;;;6.00;99.90;;;;;;5095830;28;20540;-73
2023/10/23 01:30:51;;;;;;;1999.90;999.90;;;6.00;99.90;;;;;;5095662;28;20528;-73
2023/10/23 01:33:16;;;;;;;1999.90;999.90;;;6.00;99.90;;;;;;5095548;28;20033;-73
2023/10/23 01:35:42;;;;;;;1999.90;999.90;;;6.00;99.90;;;;;;5094040;28;20129;-74
2023/10/23 01:38:07;;;;;;;1999.90;999.90;;;6.10;99.90;;;;;;5095602;28;20035;-72
2023/10/23 01:40:33;;;;;;;1999.90;999.90;;;6.10;99.90;;;;;;5094615;28;20482;-72
2023/10/23 01:42:59;;;;;;;1999.90;999.90;;;6.00;99.90;;;;;;5094386;28;20497;-73
2023/10/23 01:45:24;;;;;;;1999.90;999.90;;;6.00;99.90;;;;;;5095269;28;20405;-73
2023/10/23 01:47:50;;;;;;;1999.90;999.90;;;5.90;99.90;;;;;;5095156;28;20041;-73
2023/10/23 01:50:15;;;;;;;1999.90;999.90;;;6.00;99.90;;;;;;5095478;28;20060;-73
2023/10/23 01:52:41;;;;;;;1999.90;999.90;;;6.00;99.90;;;;;;5095466;28;20094;-73
2023/10/23 01:55:07;;;;;;;1999.90;999.90;;;5.90;99.90;;;;;;5093930;28;20029;-73
2023/10/23 01:57:33;;;;;;;1999.90;999.90;;;5.90;99.90;;;;;;5095192;28;20071;-73
2023/10/23 02:00:04;;;;;;;1999.90;999.90;;;5.80;99.90;;;;;;5093771;28;20033;-72
2023/10/23 02:02:33;;;;;;;1999.90;999.90;;;5.70;99.90;;;;;;5093579;28;20526;-73
2023/10/23 02:04:59;;;;;;;1999.90;999.90;;;5.80;99.90;;;;;;5095142;28;20036;-73
2023/10/23 02:07:27;;;;;;;1999.90;999.90;;;5.80;99.90;;;;;;5094843;28;20045;-73
2023/10/23 02:09:53;;;;;;;1999.90;999.90;;;5.80;99.90;;;;;;5095171;28;20025;-74
2023/10/23 02:12:18;;;;;;;1999.90;999.90;;;5.80;99.90;;;;;;5094973;28;20029;-72
2023/10/23 02:14:44;;;;;;;1999.90;999.90;;;5.80;99.90;;;;;;5094999;28;20470;-72
2023/10/23 02:17:10;;;;;;;1999.90;999.90;;;5.70;99.90;;;;;;5093353;28;20464;-73
2023/10/23 02:19:35;;;;;;;1999.90;999.90;;;5.80;99.90;;;;;;5094852;28;20044;-72
2023/10/23 02:22:01;;;;;;;1999.90;999.90;;;5.70;99.90;;;;;;5094987;28;20040;-73
2023/10/23 02:24:27;;;;;;;1999.90;999.90;;;5.70;99.90;;;;;;5095102;28;20029;-73
2023/10/23 02:26:54;;;;;;;1999.90;999.90;;;5.60;99.90;;;;;;5093113;28;20044;-73
2023/10/23 02:29:19;;;;;;;1999.90;999.90;;;5.60;99.90;;;;;;5094609;28;20029;-73
2023/10/23 02:31:45;;;;;;;1999.90;999.90;;;5.60;99.90;;;;;;5094250;28;20036;-73
2023/10/23 02:34:10;;;;;;;1999.90;999.90;;;5.60;99.90;;;;;;5094915;28;20063;-73
2023/10/23 02:36:36;;;;;;;1999.90;999.90;;;5.60;99.90;;;;;;5094614;28;20085;-72
2023/10/23 02:39:01;;;;;;;1999.90;999.90;;;5.60;99.90;;;;;;5093178;28;20040;-72
2023/10/23 02:41:30;;;;;;;1999.90;999.90;;;5.60;99.90;;;;;;5094638;28;20159;-73
2023/10/23 02:43:56;;;;;;;1999.90;999.90;;;5.70;99.90;;;;;;5093187;28;20040;-73
2023/10/23 02:46:22;;;;;;;1999.90;999.90;;;5.60;99.90;;;;;;5094482;28;20067;-72
2023/10/23 02:48:47;;;;;;;1999.90;999.90;;;5.50;99.90;;;;;;5094598;28;20167;-73
2023/10/23 02:51:13;;;;;;;1999.90;999.90;;;5.50;99.90;;;;;;5093012;28;20107;-73
2023/10/23 02:53:39;;;;;;;1999.90;999.90;;;5.50;99.90;;;;;;5094760;28;20869;-72
2023/10/23 02:56:10;;;;;;;1999.90;999.90;;;5.50;99.90;;;;;;5097782;28;20119;-73
2023/10/23 02:58:36;;;;;;;1999.90;999.90;;;5.40;99.90;;;;;;5098072;28;20040;-72
2023/10/23 03:01:02;;;;;;;1999.90;999.90;;;5.40;99.90;;;;;;5096762;28;20032;-72
2023/10/23 03:03:28;;;;;;;1999.90;999.90;;;5.40;99.90;;;;;;5098128;28;20402;-73
2023/10/23 03:05:54;;;;;;;1999.90;999.90;;;5.40;99.90;;;;;;5097788;28;20075;-73
2023/10/23 03:08:19;;;;;;;1999.90;999.90;;;5.40;99.90;;;;;;5098024;28;20823;-73
2023/10/23 03:10:45;;;;;;;1999.90;999.90;;;5.30;99.90;;;;;;5097578;28;20478;-73
2023/10/23 03:13:11;;;;;;;1999.90;999.90;;;5.30;99.90;;;;;;5097439;28;20048;-73
2023/10/23 03:15:37;;;;;;;1999.90;999.90;;;5.30;99.90;;;;;;5097656;28;20037;-73
2023/10/23 03:18:04;;;;;;;1999.90;999.90;;;5.30;99.90;;;;;;5096236;28;20036;-73
2023/10/23 03:20:30;;;;;;;1999.90;999.90;;;5.30;99.90;;;;;;5097250;28;20081;-73
2023/10/23 03:22:56;;;;;;;1999.90;999.90;;;5.20;99.90;;;;;;5096442;28;20036;-72
2023/10/23 03:25:21;;;;;;;1999.90;999.90;;;5.20;99.90;;;;;;5097641;28;20094;-73
2023/10/23 03:27:47;;;;;;;1999.90;999.90;;;5.20;99.90;;;;;;5095821;28;20047;-72
2023/10/23 03:30:13;;;;;;;1999.90;999.90;;;5.20;99.90;;;;;;5097769;28;20056;-73
2023/10/23 03:32:38;;;;;;;1999.90;999.90;;;5.20;99.90;;;;;;5095842;28;20044;-73
2023/10/23 03:35:04;;;;;;;1999.90;999.90;;;5.10;99.90;;;;;;5097395;28;20032;-72
2023/10/23 03:37:30;;;;;;;1999.90;999.90;;;5.10;99.90;;;;;;5097211;28;20110;-73
2023/10/23 03:39:55;;;;;;;1999.90;999.90;;;5.20;99.90;;;;;;5097604;28;20488;-73
2023/10/23 03:42:21;;;;;;;1999.90;999.90;;;5.30;99.90;;;;;;5097437;28;20056;-73
2023/10/23 03:44:46;;;;;;;1999.90;999.90;;;5.30;99.90;;;;;;5097795;28;20506;-72
2023/10/23 03:47:12;;;;;;;1999.90;999.90;;;5.30;99.90;;;;;;5097464;28;20039;-73
2023/10/23 03:49:37;;;;;;;1999.90;999.90;;;5.30;99.90;;;;;;5097526;28;20025;-73
2023/10/23 03:52:03;;;;;;;1999.90;999.90;;;5.30;99.90;;;;;;5095591;28;20061;-72
2023/10/23 03:54:28;;;;;;;1999.90;999.90;;;5.20;99.90;;;;;;5097321;28;20431;-73
2023/10/23 03:56:54;;;;;;;1999.90;999.90;;;5.10;99.90;;;;;;5095402;28;20095;-73
2023/10/23 03:59:19;;;;;;;1999.90;999.90;;;5.20;99.90;;;;;;5097097;28;20028;-73
2023/10/23 04:01:45;;;;;;;1999.90;999.90;;;5.10;99.90;;;;;;5097012;28;20162;-73
2023/10/23 04:04:11;;;;;;;1999.90;999.90;;;5.10;99.90;;;;;;5097175;28;20036;-73
2023/10/23 04:06:39;;;;;;;1999.90;999.90;;;5.10;99.90;;;;;;5095711;28;20479;-72
2023/10/23 04:09:05;;;;;;;1999.90;999.90;;;5.10;99.90;;;;;;5096922;28;20041;-72
2023/10/23 04:11:31;;;;;;;1999.90;999.90;;;5.00;99.90;;;;;;5097101;28;20029;-73
2023/10/23 04:13:56;;;;;;;1999.90;999.90;;;5.00;99.90;;;;;;5097031;28;20546;-73
2023/10/23 04:16:22;;;;;;;1999.90;999.90;;;5.00;99.90;;;;;;5096397;28;20028;-73
2023/10/23 04:18:48;;;;;;;1999.90;999.90;;;5.00;99.90;;;;;;5096916;28;20189;-73
2023/10/23 04:21:13;;;;;;;1999.90;999.90;;;5.00;99.90;;;;;;5096480;28;20043;-72
2023/10/23 04:23:40;;;;;;;1999.90;999.90;;;5.00;99.90;;;;;;5096916;28;20036;-73
2023/10/23 04:26:06;;;;;;;1999.90;999.90;;;5.10;99.90;;;;;;5096254;28;20029;-72
2023/10/23 04:28:32;;;;;;;1999.90;999.90;;;5.20;99.90;;;;;;5095285;28;20044;-73
2023/10/23 04:30:58;;;;;;;1999.90;999.90;;;5.20;99.90;;;;;;5094986;28;20024;-73
2023/10/23 04:33:25;;;;;;;1999.90;999.90;;;5.20;99.90;;;;;;5096648;28;20467;-73
2023/10/23 04:35:57;;;;;;;1999.90;999.90;;;5.20;99.90;;;;;;5096433;28;20029;-72
2023/10/23 04:38:24;;;;;;;1999.90;999.90;;;5.20;99.90;;;;;;5095162;28;20482;-75
2023/10/23 04:40:50;;;;;;;1999.90;999.90;;;5.20;99.90;;;;;;5096031;28;20067;-73
2023/10/23 04:43:16;;;;;;;1999.90;999.90;;;5.20;99.90;;;;;;5095077;28;20036;-73
2023/10/23 04:45:42;;;;;;;1999.90;999.90;;;5.10;99.90;;;;;;5096268;28;20486;-77
2023/10/23 04:48:09;;;;;;;1999.90;999.90;;;5.20;99.90;;;;;;5096388;28;20040;-74
2023/10/23 04:50:36;;;;;;;1999.90;999.90;;;5.10;99.90;;;;;;5096232;28;20033;-73
2023/10/23 04:53:02;;;;;;;1999.90;999.90;;;5.10;99.90;;;;;;5096488;28;20584;-73
2023/10/23 04:55:38;;;;;;;1999.90;999.90;;;5.10;99.90;;;;;;5096118;28;20028;-73
2023/10/23 04:58:04;;;;;;;1999.90;999.90;;;5.10;99.90;;;;;;5096088;28;20040;-73
2023/10/23 05:00:30;;;;;;;1999.90;999.90;;;5.10;99.90;;;;;;5096147;28;20039;-73
2023/10/23 05:02:55;;;;;;;1999.90;999.90;;;5.10;99.90;;;;;;5096339;28;20041;-73
2023/10/23 05:05:22;;;;;;;1999.90;999.90;;;5.00;99.90;;;;;;5094479;28;20033;-73
2023/10/23 05:07:47;;;;;;;1999.90;999.90;;;5.10;99.90;;;;;;5095837;28;20493;-73
2023/10/23 05:10:13;;;;;;;1999.90;999.90;;;5.10;99.90;;;;;;5096069;28;20032;-73
2023/10/23 05:12:39;;;;;;;1999.90;999.90;;;5.10;99.90;;;;;;5095941;28;20557;-73
2023/10/23 05:15:05;;;;;;;1999.90;999.90;;;5.20;99.90;;;;;;5094588;28;20394;-72
2023/10/23 05:17:31;;;;;;;1999.90;999.90;;;5.20;99.90;;;;;;5095142;28;20056;-72
2023/10/23 05:19:57;;;;;;;1999.90;999.90;;;5.10;99.90;;;;;;5093343;28;20118;-74
2023/10/23 05:22:23;;;;;;;1999.90;999.90;;;5.00;99.90;;;;;;5089575;28;20047;-73
2023/10/23 05:24:49;;;;;;;1999.90;999.90;;;5.00;99.90;;;;;;5079561;28;20040;-72
2023/10/23 05:27:16;;;;;;;1999.90;999.90;;;4.90;99.90;;;;;;5092950;28;20497;-73
2023/10/23 05:29:42;;;;;;;1999.90;999.90;;;4.90;99.90;;;;;;5095396;28;20126;-74
2023/10/23 05:32:08;;;;;;;1999.90;999.90;;;4.90;99.90;;;;;;5109707;22;20133;-78
2023/10/23 05:34:34;;;;;;;1999.90;999.90;;;4.80;99.90;;;;;;5093733;28;20032;-70
2023/10/23 05:37:00;;;;;;;1999.90;999.90;;;4.80;99.90;;;;;;5082266;28;20027;-70
2023/10/23 05:39:29;;;;;;;1999.90;999.90;;;4.70;99.90;;;;;;5076431;28;20502;-75
2023/10/23 05:41:54;;;;;;;1999.90;999.90;;;4.70;99.90;;;;;;5075073;28;20037;-68
2023/10/23 05:44:20;;;;;;;1999.90;999.90;;;4.60;99.90;;;;;;5083397;28;20440;-68
2023/10/23 05:46:46;;;;;;;1999.90;999.90;;;4.50;99.90;;;;;;5084313;28;20031;-68
2023/10/23 05:49:11;;;;;;;1999.90;999.90;;;4.60;99.90;;;;;;5083292;28;20037;-70
2023/10/23 05:51:37;;;;;;;1999.90;999.90;;;4.60;99.90;;;;;;5082769;28;20057;-70
2023/10/23 05:54:03;;;;;;;1999.90;999.90;;;4.50;99.90;;;;;;5093533;28;20055;-70
2023/10/23 05:56:29;;;;;;;1999.90;999.90;;;4.50;99.90;;;;;;5094234;28;20040;-70
2023/10/23 05:58:54;;;;;;;1999.90;999.90;;;4.50;99.90;;;;;;5094517;28;20506;-70
2023/10/23 06:01:20;;;;;;;1999.90;999.90;;;4.50;99.90;;;;;;5087760;28;20048;-70
2023/10/23 06:03:45;;;;;;;1999.90;999.90;;;4.50;99.90;;;;;;5084819;28;20444;-70
2023/10/23 06:06:12;;;;;;;1999.90;999.90;;;4.60;99.90;;;;;;5084807;28;20874;-70
2023/10/23 06:08:38;;;;;;;1999.90;999.90;;;4.60;99.90;;;;;;5083817;28;20181;-70
2023/10/23 06:11:08;;;;;;;1999.90;999.90;;;4.70;99.90;;;;;;5082293;28;20037;-70
2023/10/23 06:13:33;;;;;;;1999.90;999.90;;;4.80;99.90;;;;;;5083824;28;20953;-70
2023/10/23 06:16:04;;;;;;;1999.90;999.90;;;4.80;99.90;;;;;;5084033;28;20059;-70
2023/10/23 06:18:37;;;;;;;1999.90;999.90;;;4.80;99.90;;;;;;5082780;28;20037;-70
2023/10/23 06:21:04;;;;;;;1999.90;999.90;;;4.90;99.90;;;;;;5082791;28;20037;-70
2023/10/23 06:23:32;;;;;;;1999.90;999.90;;;4.80;99.90;;;;;;5085206;28;20087;-69
2023/10/23 06:25:59;;;;;;;1999.90;999.90;;;4.80;99.90;;;;;;5082884;28;20059;-70
2023/10/23 06:28:27;;;;;;;1999.90;999.90;;;4.90;99.90;;;;;;5084578;28;20098;-70
2023/10/23 06:30:53;;;;;;;1999.90;999.90;;;4.90;99.90;;;;;;5086880;28;20040;-70
2023/10/23 06:33:19;;;;;;;1999.90;999.90;;;4.90;99.90;;;;;;5095775;28;20043;-70
2023/10/23 06:35:44;;;;;;;1999.90;999.90;;;5.00;99.90;;;;;;5088620;28;20394;-70
2023/10/23 06:38:10;;;;;;;1999.90;999.90;;;5.10;99.90;;;;;;5094626;28;20132;-70
2023/10/23 06:40:36;;;;;;;1999.90;999.90;;;5.00;99.90;;;;;;5097350;28;20036;-70
2023/10/23 06:43:02;;;;;;;1999.90;999.90;;;5.10;99.90;;;;;;5097563;28;20037;-70
2023/10/23 06:45:27;;;;;;;1999.90;999.90;;;5.10;99.90;;;;;;5097642;28;20028;-70
2023/10/23 06:47:53;;;;;;;1999.90;999.90;;;5.20;99.90;;;;;;5097243;28;20053;-70
2023/10/23 06:50:19;;;;;;;1999.90;999.90;;;5.30;99.90;;;;;;5097824;28;20037;-70
2023/10/23 06:52:44;;;;;;;1999.90;999.90;;;5.40;99.90;;;;;;5087644;28;20432;-70
2023/10/23 06:55:11;;;;;;;1999.90;999.90;;;5.30;99.90;;;;;;5085697;28;20024;-70
2023/10/23 06:57:36;;;;;;;1999.90;999.90;;;5.40;99.90;;;;;;5087849;28;20067;-70
2023/10/23 07:00:02;;;;;;;1999.90;999.90;;;5.50;99.90;;;;;;5087313;28;20121;-70
2023/10/23 07:02:28;;;;;;;1999.90;999.90;;;5.60;99.90;;;;;;5083890;28;20091;-70
2023/10/23 07:04:53;;;;;;;1999.90;999.90;;;5.60;99.90;;;;;;5088049;28;20486;-70
2023/10/23 07:07:19;;;;;;;1999.90;999.90;;;5.60;99.90;;;;;;5086978;28;20048;-70
2023/10/23 07:09:45;;;;;;;1999.90;999.90;;;5.70;99.90;;;;;;5088251;28;20094;-70
2023/10/23 07:12:11;;;;;;;1999.90;999.90;;;5.80;99.90;;;;;;5083112;28;20040;-70
2023/10/23 07:14:37;;;;;;;1999.90;999.90;;;5.90;99.90;;;;;;5087583;28;20532;-70
2023/10/23 07:17:02;;;;;;;1999.90;999.90;;;5.90;99.90;;;;;;5084296;28;20041;-71
2023/10/23 07:19:28;;;;;;;1999.90;999.90;;;6.00;99.90;;;;;;5080280;28;20037;-70
2023/10/23 07:21:53;;;;;;;1999.90;999.90;;;6.10;99.90;;;;;;5096666;28;20086;-72
2023/10/23 07:24:19;;;;;;;1999.90;999.90;;;6.10;99.90;;;;;;5097372;28;20029;-70
2023/10/23 07:26:44;;;;;;;1999.90;999.90;;;6.20;99.90;;;;;;5096879;28;20111;-70
2023/10/23 07:29:10;;;;;;;1999.90;999.90;;;6.30;99.90;;;;;;5088517;28;20076;-70
2023/10/23 07:31:39;;;;;;;1999.90;999.90;;;6.30;99.90;;;;;;5092154;28;20039;-70
2023/10/23 07:34:04;;;;;;;1999.90;999.90;;;6.50;99.90;;;;;;5096298;28;20040;-70
2023/10/23 07:36:30;;;;;;;1999.90;999.90;;;6.60;99.90;;;;;;5092082;28;20477;-70
2023/10/23 07:38:56;;;;;;;1999.90;999.90;;;6.70;99.90;;;;;;5097284;28;20086;-70
2023/10/23 07:41:21;;;;;;;1999.90;999.90;;;6.80;99.90;;;;;;5095090;28;20024;-70
2023/10/23 07:43:47;;;;;;;1999.90;999.90;;;6.90;99.90;;;;;;5096781;28;20036;-70
2023/10/23 07:46:13;;;;;;;1999.90;999.90;;;7.00;99.90;;;;;;5096287;28;20059;-70
2023/10/23 07:48:39;;;;;;;1999.90;999.90;;;7.10;99.90;;;;;;5097082;28;20497;-70
2023/10/23 07:51:05;;;;;;;1999.90;999.90;;;7.20;99.90;;;;;;5096601;28;20498;-70
2023/10/23 07:53:38;;;;;;;1999.90;999.90;;;7.30;99.90;;;;;;5097068;28;20490;-70
2023/10/23 07:56:04;;;;;;;1999.90;999.90;;;7.40;99.90;;;;;;5096451;28;20044;-70
2023/10/23 07:58:30;;;;;;;1999.90;999.90;;;7.60;99.90;;;;;;5095945;28;20029;-70
2023/10/23 08:01:11;;;;;;;1999.90;999.90;;;7.80;99.90;;;;;;5084987;28;20028;-70
2023/10/23 08:03:37;;;;;;;1999.90;999.90;;;8.00;99.90;;;;;;5083256;28;20029;-70
2023/10/23 08:06:03;;;;;;;1999.90;999.90;;;8.20;99.90;;;;;;5086933;28;20028;-71
2023/10/23 08:08:34;;;;;;;1999.90;999.90;;;8.30;99.90;;;;;;5091806;28;20051;-70
2023/10/23 08:11:01;;;;;;;1999.90;999.90;;;8.40;99.90;;;;;;5096310;28;20032;-70
2023/10/23 08:13:26;;;;;;;1999.90;999.90;;;8.50;99.90;;;;;;5087288;28;20033;-71
2023/10/23 08:15:53;;;;;;;1999.90;999.90;;;8.60;99.90;;;;;;5088223;28;20394;-71
2023/10/23 08:18:18;;;;;;;1999.90;999.90;;;8.60;99.90;;;;;;5093959;28;20037;-70
2023/10/23 08:20:44;;;;;;;1999.90;999.90;;;8.60;99.90;;;;;;5093832;28;20474;-71
2023/10/23 08:23:09;;;;;;;1999.90;999.90;;;8.80;99.90;;;;;;5094115;28;20092;-71
2023/10/23 08:25:35;;;;;;;1999.90;999.90;;;9.10;99.90;;;;;;5085173;28;20033;-70
2023/10/23 08:28:02;;;;;;;1999.90;999.90;;;9.20;99.90;;;;;;5081138;28;20055;-70
2023/10/23 08:30:27;;;;;;;1999.90;999.90;;;9.40;99.90;;;;;;5085569;28;20453;-71
2023/10/23 08:32:53;;;;;;;1999.90;999.90;;;9.50;99.90;;;;;;5084787;28;20052;-70
2023/10/23 08:35:19;;;;;;;1999.90;999.90;;;9.60;99.90;;;;;;5085633;28;20075;-71
2023/10/23 08:37:45;;;;;;;1999.90;999.90;;;9.70;99.90;;;;;;5088363;28;20085;-71
2023/10/23 08:40:11;;;;;;;1999.90;999.90;;;9.80;99.90;;;;;;5093928;28;20044;-70
2023/10/23 08:42:37;;;;;;;1999.90;999.90;;;9.90;99.90;;;;;;5094323;28;20114;-71
2023/10/23 08:45:03;;;;;;;1999.90;999.90;;;10.00;99.90;;;;;;5093145;28;20170;-71
2023/10/23 08:47:29;;;;;;;1999.90;999.90;;;10.20;99.90;;;;;;5092224;28;20770;-71
2023/10/23 08:49:59;;;;;;;1999.90;999.90;;;10.20;99.90;;;;;;5073278;28;20039;-71
2023/10/23 08:52:30;;;;;;;1999.90;999.90;;;10.40;99.90;;;;;;5093009;28;20031;-71
2023/10/23 08:54:57;;;;;;;1999.90;999.90;;;10.60;99.90;;;;;;5084268;28;20489;-70
2023/10/23 08:57:24;;;;;;;1999.90;999.90;;;10.70;99.90;;;;;;5093498;28;20048;-71
2023/10/23 08:59:50;;;;;;;1999.90;999.90;;;10.90;99.90;;;;;;5094596;28;20052;-71
2023/10/23 09:02:16;;;;;;;1999.90;999.90;;;10.90;99.90;;;;;;5094684;28;20501;-71
2023/10/23 09:04:41;;;;;;;1999.90;999.90;;;11.20;99.90;;;;;;5095414;28;20165;-71
2023/10/23 09:07:07;;;;;;;1999.90;999.90;;;11.30;99.90;;;;;;5093834;28;20537;-71
2023/10/23 09:09:32;;;;;;;1999.90;999.90;;;11.40;99.90;;;;;;5094754;28;20465;-71
2023/10/23 09:11:58;;;;;;;1999.90;999.90;;;11.50;99.90;;;;;;5095243;28;20064;-71
2023/10/23 09:14:26;;;;;;;1999.90;999.90;;;11.50;99.90;;;;;;5095441;28;20039;-71
2023/10/23 09:16:53;;;;;;;1999.90;999.90;;;11.40;99.90;;;;;;5093685;28;20041;-71
2023/10/23 09:19:32;;;;;;;1999.90;999.90;;;11.40;99.90;;;;;;5095399;28;20379;-71
2023/10/23 09:21:58;;;;;;;1999.90;999.90;;;11.60;99.90;;;;;;5094576;28;20028;-71
2023/10/23 09:24:24;;;;;;;1999.90;999.90;;;11.60;99.90;;;;;;5095565;28;20038;-71
2023/10/23 09:26:51;;;;;;;1999.90;999.90;;;11.70;99.90;;;;;;5092637;28;20315;-71
2023/10/23 09:29:27;;;;;;;1999.90;999.90;;;11.90;99.90;;;;;;5092665;28;20532;-71
2023/10/23 09:31:55;;;;;;;1999.90;999.90;;;12.00;99.90;;;;;;5094146;28;20516;-71
2023/10/23 09:34:21;;;;;;;1999.90;999.90;;;12.00;99.90;;;;;;5093758;28;20036;-71
2023/10/23 09:36:50;;;;;;;1999.90;999.90;;;11.90;99.90;;;;;;5074584;28;20423;-71
2023/10/23 09:39:16;;;;;;;1999.90;999.90;;;11.90;99.90;;;;;;5085211;28;20110;-71
2023/10/23 09:41:42;;;;;;;1999.90;999.90;;;12.00;99.90;;;;;;5091871;28;20033;-71
2023/10/23 09:44:09;;;;;;;1999.90;999.90;;;12.20;99.90;;;;;;5086397;28;20131;-71
2023/10/23 09:46:36;;;;;;;1999.90;999.90;;;12.40;99.90;;;;;;5094002;28;20038;-70
2023/10/23 09:49:04;;;;;;;1999.90;999.90;;;12.40;99.90;;;;;;5094538;28;20048;-72
2023/10/23 09:51:39;;;;;;;1999.90;999.90;;;12.40;99.90;;;;;;5092032;28;20501;-73
2023/10/23 09:54:32;;;;;;;1999.90;999.90;;;12.60;99.90;;;;;;5080334;28;20041;-82
2023/10/23 09:57:03;;;;;;;1999.90;999.90;;;12.70;99.90;;;;;;5068194;28;20093;-78
2023/10/23 09:59:37;;;;;;;1999.90;999.90;;;12.70;99.90;;;;;;5082627;28;20119;-71
2023/10/23 10:02:06;;;;;;;1999.90;999.90;;;12.80;99.90;;;;;;5080364;28;20559;-71
2023/10/23 10:04:55;;;;;;;1999.90;999.90;;;12.80;99.90;;;;;;5092127;28;20039;-71
2023/10/23 10:07:40;;;;;;;1999.90;999.90;;;12.90;99.90;;;;;;5093731;28;20041;-71
2023/10/23 10:10:08;;;;;;;1999.90;999.90;;;13.00;99.90;;;;;;5088946;28;20063;-71
2023/10/23 10:12:37;;;;;;;1999.90;999.90;;;13.00;99.90;;;;;;5090915;28;20072;-71
2023/10/23 10:15:04;;;;;;;1999.90;999.90;;;13.10;99.90;;;;;;5081780;28;20044;-71
2023/10/23 10:17:30;;;;;;;1999.90;999.90;;;13.20;99.90;;;;;;5071448;28;20123;-72
2023/10/23 10:20:02;;;;;;;1999.90;999.90;;;13.10;99.90;;;;;;5080748;28;20087;-71
2023/10/23 10:22:33;;;;;;;1999.90;999.90;;;13.20;99.90;;;;;;5072860;28;20033;-71
2023/10/23 10:24:59;;;;;;;1999.90;999.90;;;13.10;99.90;;;;;;5078806;28;20033;-71
2023/10/23 10:27:25;;;;;;;1999.90;999.90;;;13.10;99.90;;;;;;5093766;28;20561;-71
2023/10/23 10:29:51;;;;;;;1999.90;999.90;;;13.30;99.90;;;;;;5090884;28;20068;-71
2023/10/23 10:32:17;;;;;;;1999.90;999.90;;;13.30;99.90;;;;;;5089542;28;20119;-71
2023/10/23 10:34:46;;;;;;;1999.90;999.90;;;13.30;99.90;;;;;;5092304;28;20039;-71
2023/10/23 10:37:12;;;;;;;1999.90;999.90;;;13.40;99.90;;;;;;5093940;28;20623;-71
2023/10/23 10:39:46;;;;;;;1999.90;999.90;;;13.40;99.90;;;;;;5094428;28;20086;-71
2023/10/23 10:42:23;;;;;;;1999.90;999.90;;;13.50;99.90;;;;;;5094010;28;20111;-71
2023/10/23 10:44:56;;;;;;;1999.90;999.90;;;13.60;99.90;;;;;;5093264;28;20090;-71
2023/10/23 10:47:41;;;;;;;1999.90;999.90;;;13.60;99.90;;;;;;5093325;28;20068;-71
2023/10/23 10:50:07;;;;;;;1999.90;999.90;;;13.70;99.90;;;;;;5093308;28;20036;-71
2023/10/23 10:52:35;;;;;;;1999.90;999.90;;;13.80;99.90;;;;;;5083963;28;20033;-71
2023/10/23 10:55:13;;;;;;;1999.90;999.90;;;13.90;99.90;;;;;;5085255;28;20028;-72
2023/10/23 10:57:43;;;;;;;1999.90;999.90;;;14.00;99.90;;;;;;5081244;28;20033;-71
2023/10/23 11:00:09;;;;;;;1999.90;999.90;;;14.10;99.90;;;;;;5090448;28;20037;-71
2023/10/23 11:02:36;;;;;;;1999.90;999.90;;;14.20;99.90;;;;;;5074659;28;20479;-71
2023/10/23 11:05:20;;;;;;;1999.90;999.90;;;14.30;99.90;;;;;;5073584;28;20037;-71
2023/10/23 11:07:47;;;;;;;1999.90;999.90;;;14.30;99.90;;;;;;5091734;28;20044;-71
2023/10/23 11:10:13;;;;;;;1999.90;999.90;;;14.30;99.90;;;;;;5093240;28;20024;-71
2023/10/23 11:12:40;;;;;;;1999.90;999.90;;;14.20;99.90;;;;;;5092890;28;20036;-71
2023/10/23 11:15:06;;;;;;;1999.90;999.90;;;14.10;99.90;;;;;;5094032;28;20512;-71
2023/10/23 11:17:33;;;;;;;1999.90;999.90;;;14.00;99.90;;;;;;5086050;28;20489;-71
2023/10/23 11:20:05;;;;;;;1999.90;999.90;;;14.00;99.90;;;;;;5084880;28;20108;-71
2023/10/23 11:22:31;;;;;;;1999.90;999.90;;;13.80;99.90;;;;;;5095199;28;20547;-71
2023/10/23 11:24:56;;;;;;;1999.90;999.90;;;13.70;99.90;;;;;;5084760;28;20111;-71
2023/10/23 11:27:22;;;;;;;1999.90;999.90;;;13.60;99.90;;;;;;5084311;28;20805;-71
2023/10/23 11:29:48;;;;;;;1999.90;999.90;;;13.60;99.90;;;;;;5096350;28;20094;-71
2023/10/23 11:32:15;;;;;;;1999.90;999.90;;;13.60;99.90;;;;;;5117786;22;20106;-70
2023/10/23 11:34:42;;;;;;;1999.90;999.90;;;13.60;99.90;;;;;;5077893;28;20051;-68
2023/10/23 11:37:09;;;;;;;1999.90;999.90;;;13.60;99.90;;;;;;5059852;28;20112;-69
2023/10/23 11:39:36;;;;;;;1999.90;999.90;;;13.70;99.90;;;;;;5080425;28;20425;-69
2023/10/23 11:42:02;;;;;;;1999.90;999.90;;;13.70;99.90;;;;;;5064509;28;20040;-69
2023/10/23 11:44:30;;;;;;;1999.90;999.90;;;13.70;99.90;;;;;;5058320;28;20086;-69
2023/10/23 11:46:58;;;;;;;1999.90;999.90;;;13.70;99.90;;;;;;5077071;28;20048;-70
2023/10/23 11:49:23;;;;;;;1999.90;999.90;;;13.70;99.90;;;;;;5077589;28;20125;-70
2023/10/23 11:51:53;;;;;;;1999.90;999.90;;;13.70;99.90;;;;;;5078011;28;20565;-70
2023/10/23 11:54:19;;;;;;;1999.90;999.90;;;13.80;99.90;;;;;;5078148;28;20500;-70
2023/10/23 11:56:45;;;;;;;1999.90;999.90;;;13.90;99.90;;;;;;5078012;28;20060;-68
2023/10/23 11:59:18;;;;;;;1999.90;999.90;;;14.00;99.90;;;;;;5078078;28;20041;-68
2023/10/23 12:01:45;;;;;;;1999.90;999.90;;;14.10;99.90;;;;;;5060353;28;20461;-69
2023/10/23 12:04:11;;;;;;;1999.90;999.90;;;14.40;99.90;;;;;;5077932;28;20063;-70